Time;durP1;ratioP1;P1;durP2;ratioP2;P2;SDS_P1;SDS_P2;PMS_P1;PMS_P2;Temp;Humidity;BMP_temperature;BMP_pressure;BME280_temperature;BME280_humidity;BME280_pressure;Samples;Min_cycle;Max_cycle;Signal;HPM_P1;HPM_P2
2024/01/24 00:03:49;;;;;;;62.30;28.20;;;;;;;;;;10098182;29;20462;-80
2024/01/24 00:08:50;;;;;;;47.70;19.27;;;;;;;;;;10102514;29;20536;-79
2024/01/24 00:13:51;;;;;;;46.70;19.67;;;;;;;;;;10123139;29;20052;-82
2024/01/24 00:18:53;;;;;;;46.30;18.63;;;;;;;;;;10126680;29;20228;-81
2024/01/24 00:23:54;;;;;;;50.57;19.50;;;;;;;;;;10126764;29;20514;-82
2024/01/24 00:28:55;;;;;;;41.43;17.57;;;;;;;;;;10107420;29;20427;-79
2024/01/24 00:33:56;;;;;;;40.50;16.77;;;;;;;;;;10125471;29;20060;-82
2024/01/24 00:38:57;;;;;;;33.87;14.80;;;;;;;;;;10125525;29;20099;-80
2024/01/24 00:43:58;;;;;;;38.20;16.10;;;;;;;;;;10125944;29;20494;-82
2024/01/24 00:48:59;;;;;;;34.90;13.83;;;;;;;;;;10125259;29;20044;-82
2024/01/24 00:54:00;;;;;;;38.33;13.80;;;;;;;;;;10120957;23;20077;-80
2024/01/24 00:59:01;;;;;;;31.40;11.30;;;;;;;;;;10092294;29;20036;-81
2024/01/24 01:04:03;;;;;;;26.57;9.67;;;;;;;;;;10080108;29;20048;-81
2024/01/24 01:09:04;;;;;;;27.93;10.77;;;;;;;;;;10080014;29;20033;-82
2024/01/24 01:14:06;;;;;;;24.40;10.00;;;;;;;;;;10097416;29;20427;-79
2024/01/24 01:19:07;;;;;;;23.23;9.10;;;;;;;;;;10082465;29;20033;-84
2024/01/24 01:24:11;;;;;;;26.47;9.97;;;;;;;;;;10079427;29;20037;-82
2024/01/24 01:29:12;;;;;;;21.07;8.03;;;;;;;;;;10089501;29;20464;-81
2024/01/24 01:34:13;;;;;;;22.37;7.90;;;;;;;;;;10090652;29;20045;-82
2024/01/24 01:39:14;;;;;;;23.50;8.60;;;;;;;;;;10082929;29;20110;-83
2024/01/24 01:44:15;;;;;;;19.67;6.70;;;;;;;;;;10058916;29;20450;-83
2024/01/24 01:49:16;;;;;;;15.13;6.77;;;;;;;;;;10061173;29;20236;-80
2024/01/24 01:54:18;;;;;;;21.30;6.93;;;;;;;;;;10046691;29;20113;-84
2024/01/24 01:59:19;;;;;;;20.47;6.77;;;;;;;;;;10051164;29;20108;-83
2024/01/24 02:04:20;;;;;;;23.97;7.10;;;;;;;;;;10064461;29;20426;-82
2024/01/24 02:09:27;;;;;;;25.17;8.10;;;;;;;;;;10049490;29;20045;-79
2024/01/24 02:14:28;;;;;;;19.87;7.47;;;;;;;;;;10048170;29;20593;-79
2024/01/24 02:19:29;;;;;;;19.43;7.37;;;;;;;;;;10061852;29;20652;-80
2024/01/24 02:24:30;;;;;;;15.47;6.13;;;;;;;;;;10061157;29;20041;-82
2024/01/24 02:29:31;;;;;;;16.30;6.97;;;;;;;;;;10045966;29;20064;-79
2024/01/24 02:34:39;;;;;;;16.93;6.40;;;;;;;;;;10057812;29;20059;-82
2024/01/24 02:39:40;;;;;;;21.03;6.60;;;;;;;;;;10050063;29;20044;-82
2024/01/24 02:44:41;;;;;;;17.73;6.17;;;;;;;;;;10049243;29;20842;-83
2024/01/24 02:49:49;;;;;;;22.57;6.37;;;;;;;;;;10045072;29;20089;-83
2024/01/24 02:54:50;;;;;;;15.37;5.93;;;;;;;;;;10054678;29;20121;-84
2024/01/24 02:59:51;;;;;;;16.03;5.30;;;;;;;;;;10063796;29;20026;-79
2024/01/24 03:04:52;;;;;;;14.70;4.50;;;;;;;;;;10048327;29;20041;-81
2024/01/24 03:09:53;;;;;;;14.87;5.20;;;;;;;;;;10045839;29;20565;-80
2024/01/24 03:14:54;;;;;;;12.60;4.60;;;;;;;;;;10053982;29;20049;-81
2024/01/24 03:19:55;;;;;;;14.23;4.60;;;;;;;;;;10055630;29;20047;-80
2024/01/24 03:24:56;;;;;;;16.73;4.50;;;;;;;;;;10053606;29;20100;-79
2024/01/24 03:29:57;;;;;;;11.37;5.07;;;;;;;;;;10066451;29;20040;-79
2024/01/24 03:34:59;;;;;;;13.70;4.90;;;;;;;;;;10039588;29;20113;-81
2024/01/24 03:40:00;;;;;;;12.90;4.50;;;;;;;;;;10050050;29;20038;-80
2024/01/24 03:45:01;;;;;;;20.03;4.50;;;;;;;;;;10050192;29;20041;-83
2024/01/24 03:50:02;;;;;;;16.27;4.40;;;;;;;;;;10057442;29;20038;-80
2024/01/24 03:55:03;;;;;;;21.43;5.17;;;;;;;;;;10059998;29;20469;-80
2024/01/24 04:00:06;;;;;;;14.00;4.30;;;;;;;;;;10054356;29;20029;-79
2024/01/24 04:05:07;;;;;;;11.50;4.07;;;;;;;;;;10054548;29;20037;-80
2024/01/24 04:10:08;;;;;;;15.23;4.37;;;;;;;;;;10069952;29;20029;-79
2024/01/24 04:15:09;;;;;;;18.70;4.87;;;;;;;;;;10064052;29;20056;-82
2024/01/24 04:20:11;;;;;;;10.10;4.17;;;;;;;;;;10062575;29;20052;-79
2024/01/24 04:25:12;;;;;;;11.67;4.00;;;;;;;;;;10051816;29;20037;-78
2024/01/24 04:30:13;;;;;;;18.37;5.60;;;;;;;;;;10060039;29;20036;-79
2024/01/24 04:35:14;;;;;;;11.63;4.77;;;;;;;;;;10063171;29;20040;-79
2024/01/24 04:40:15;;;;;;;16.80;5.60;;;;;;;;;;10058828;29;20043;-79
2024/01/24 04:45:16;;;;;;;17.33;5.73;;;;;;;;;;10065480;29;20783;-80
2024/01/24 04:50:17;;;;;;;19.20;4.60;;;;;;;;;;10054261;29;20092;-78
2024/01/24 04:55:18;;;;;;;14.53;5.33;;;;;;;;;;10067645;29;20125;-79
2024/01/24 05:00:19;;;;;;;12.90;4.80;;;;;;;;;;10064213;29;20072;-79
2024/01/24 05:05:20;;;;;;;12.50;4.43;;;;;;;;;;10054140;29;20682;-80
2024/01/24 05:10:21;;;;;;;14.40;4.67;;;;;;;;;;10049908;29;20037;-79
2024/01/24 05:15:22;;;;;;;15.83;4.50;;;;;;;;;;10052843;29;20397;-80
2024/01/24 05:20:23;;;;;;;13.90;5.07;;;;;;;;;;10061121;29;20410;-81
2024/01/24 05:25:24;;;;;;;14.80;5.13;;;;;;;;;;10049886;29;20041;-78
2024/01/24 05:30:25;;;;;;;16.67;5.30;;;;;;;;;;10048498;29;20034;-79
2024/01/24 05:35:26;;;;;;;20.10;5.97;;;;;;;;;;10048385;29;20065;-79
2024/01/24 05:40:27;;;;;;;21.07;6.23;;;;;;;;;;10047542;29;20025;-79
2024/01/24 05:45:29;;;;;;;21.03;5.90;;;;;;;;;;10048873;29;20033;-79
2024/01/24 05:50:30;;;;;;;15.20;4.67;;;;;;;;;;10047656;29;20037;-79
2024/01/24 05:55:30;;;;;;;16.77;5.17;;;;;;;;;;10046935;29;20104;-80
2024/01/24 06:00:32;;;;;;;17.50;4.40;;;;;;;;;;10047600;29;20032;-79
2024/01/24 06:05:33;;;;;;;18.73;4.80;;;;;;;;;;10047112;29;20120;-79
2024/01/24 06:10:34;;;;;;;8.13;4.67;;;;;;;;;;10047238;29;20400;-78
2024/01/24 06:15:35;;;;;;;17.90;5.23;;;;;;;;;;10046254;29;20120;-79
2024/01/24 06:20:36;;;;;;;14.00;5.27;;;;;;;;;;10045935;29;20478;-79
2024/01/24 06:25:37;;;;;;;15.90;4.87;;;;;;;;;;10047198;29;20386;-79
2024/01/24 06:30:38;;;;;;;12.47;5.47;;;;;;;;;;10046466;29;20055;-80
2024/01/24 06:35:39;;;;;;;16.90;5.07;;;;;;;;;;10044957;29;20033;-80
2024/01/24 06:40:40;;;;;;;13.60;5.07;;;;;;;;;;10046122;29;20034;-79
2024/01/24 06:45:41;;;;;;;14.20;5.23;;;;;;;;;;10046228;29;20029;-79
2024/01/24 06:50:42;;;;;;;12.57;4.60;;;;;;;;;;10045382;29;20030;-81
2024/01/24 06:55:44;;;;;;;16.37;5.23;;;;;;;;;;10056767;29;20065;-81
2024/01/24 07:00:45;;;;;;;9.63;4.83;;;;;;;;;;10047411;29;20038;-79
2024/01/24 07:05:46;;;;;;;10.70;5.70;;;;;;;;;;10065403;29;20033;-79
2024/01/24 07:10:47;;;;;;;13.90;5.23;;;;;;;;;;10044995;29;20034;-82
2024/01/24 07:15:48;;;;;;;16.60;6.27;;;;;;;;;;10046340;29;20034;-80
2024/01/24 07:20:49;;;;;;;14.43;5.97;;;;;;;;;;10057899;29;20032;-80
2024/01/24 07:25:50;;;;;;;16.37;6.47;;;;;;;;;;10065036;29;20465;-80
2024/01/24 07:30:51;;;;;;;14.33;6.63;;;;;;;;;;10052657;29;20041;-82
2024/01/24 07:35:52;;;;;;;13.00;5.90;;;;;;;;;;10053053;29;20045;-81
2024/01/24 07:40:53;;;;;;;10.80;5.37;;;;;;;;;;10051687;29;20041;-81
2024/01/24 07:45:54;;;;;;;16.20;6.33;;;;;;;;;;10052326;29;20449;-81
2024/01/24 07:50:55;;;;;;;15.53;6.70;;;;;;;;;;10051706;29;20060;-79
2024/01/24 07:55:56;;;;;;;12.03;5.57;;;;;;;;;;10051385;29;20111;-81
2024/01/24 08:00:57;;;;;;;18.17;9.20;;;;;;;;;;10052622;29;20034;-80
2024/01/24 08:05:58;;;;;;;15.17;9.40;;;;;;;;;;10051158;29;20120;-80
2024/01/24 08:11:06;;;;;;;10.73;6.40;;;;;;;;;;10050677;29;20038;-79
2024/01/24 08:16:07;;;;;;;15.23;9.20;;;;;;;;;;10050298;29;20101;-79
2024/01/24 08:21:09;;;;;;;10.00;6.67;;;;;;;;;;10050108;29;20034;-79
2024/01/24 08:26:10;;;;;;;42.50;24.40;;;;;;;;;;10050787;29;20124;-83
2024/01/24 08:31:18;;;;;;;20.57;8.50;;;;;;;;;;10051195;29;20124;-82
2024/01/24 08:36:19;;;;;;;16.47;8.10;;;;;;;;;;10049094;29;20042;-80
2024/01/24 08:41:20;;;;;;;10.03;5.00;;;;;;;;;;10050802;29;20037;-81
2024/01/24 08:46:21;;;;;;;10.53;6.33;;;;;;;;;;10033009;29;20044;-83
2024/01/24 08:51:25;;;;;;;7.50;4.30;;;;;;;;;;10051207;29;20034;-80
2024/01/24 08:56:26;;;;;;;13.07;6.67;;;;;;;;;;10058550;29;20668;-82
2024/01/24 09:01:27;;;;;;;10.27;5.53;;;;;;;;;;10054309;29;20030;-81
2024/01/24 09:06:28;;;;;;;12.90;6.87;;;;;;;;;;10055640;29;20033;-81
2024/01/24 09:11:35;;;;;;;11.97;5.63;;;;;;;;;;10054378;29;20502;-84
2024/01/24 09:16:37;;;;;;;12.83;7.47;;;;;;;;;;10059940;29;20048;-82
2024/01/24 09:21:39;;;;;;;19.17;9.13;;;;;;;;;;10060476;29;20038;-82
2024/01/24 09:26:40;;;;;;;14.40;6.83;;;;;;;;;;10054108;29;20679;-82
2024/01/24 09:31:50;;;;;;;17.30;8.57;;;;;;;;;;10068267;29;20043;-82
2024/01/24 09:36:51;;;;;;;138.27;62.27;;;;;;;;;;10039262;29;20578;-84
2024/01/24 09:41:52;;;;;;;108.63;39.93;;;;;;;;;;10020037;29;20467;-80
2024/01/24 09:46:55;;;;;;;48.37;22.40;;;;;;;;;;10007979;29;20044;-81
2024/01/24 09:51:57;;;;;;;21.23;12.23;;;;;;;;;;10008674;29;20053;-79
2024/01/24 09:56:59;;;;;;;22.13;13.17;;;;;;;;;;10008156;29;20046;-80
2024/01/24 10:02:00;;;;;;;26.10;14.53;;;;;;;;;;9991537;29;20049;-79
2024/01/24 10:07:09;;;;;;;19.90;11.03;;;;;;;;;;10008327;29;20058;-82
2024/01/24 10:12:28;;;;;;;19.87;11.03;;;;;;;;;;10263321;27;8163501;-81
2024/01/24 10:17:31;;;;;;;23.93;10.40;;;;;;;;;;10536869;28;20036;-84
2024/01/24 10:22:32;;;;;;;16.53;8.97;;;;;;;;;;10522648;28;20067;-81
2024/01/24 10:27:34;;;;;;;20.67;10.53;;;;;;;;;;10521234;28;20044;-82
2024/01/24 10:32:36;;;;;;;18.67;9.23;;;;;;;;;;10542929;28;20032;-81
2024/01/24 10:37:37;;;;;;;16.40;9.07;;;;;;;;;;10519951;28;20028;-82
2024/01/24 10:42:40;;;;;;;17.73;10.20;;;;;;;;;;10518182;28;20032;-81
2024/01/24 10:47:42;;;;;;;24.10;13.20;;;;;;;;;;10502653;28;20544;-80
2024/01/24 10:52:43;;;;;;;30.27;14.83;;;;;;;;;;10502208;28;20040;-82
2024/01/24 10:57:45;;;;;;;24.30;12.43;;;;;;;;;;10511202;28;20043;-81
2024/01/24 11:02:46;;;;;;;19.53;10.57;;;;;;;;;;10497898;28;20036;-80
2024/01/24 11:07:51;;;;;;;25.03;12.50;;;;;;;;;;10519367;28;20393;-81
2024/01/24 11:12:52;;;;;;;16.17;9.45;;;;;;;;;;10560020;28;20032;-80
2024/01/24 11:18:12;;;;;;;16.87;10.07;;;;;;;;;;10559662;28;20031;-81
2024/01/24 11:23:32;;;;;;;18.37;12.20;;;;;;;;;;10533353;28;20032;-79
2024/01/24 11:28:33;;;;;;;21.30;12.57;;;;;;;;;;10530724;28;20531;-81
2024/01/24 11:33:34;;;;;;;19.87;11.37;;;;;;;;;;10517758;28;20028;-81
2024/01/24 11:38:35;;;;;;;18.30;9.50;;;;;;;;;;10530190;28;20036;-80
2024/01/24 11:43:37;;;;;;;17.53;11.57;;;;;;;;;;10515826;28;20035;-80
2024/01/24 11:48:39;;;;;;;16.70;9.80;;;;;;;;;;10503776;28;20054;-79
2024/01/24 11:53:40;;;;;;;13.73;9.47;;;;;;;;;;10513346;28;20024;-80
2024/01/24 11:58:41;;;;;;;15.93;8.80;;;;;;;;;;10529155;28;20038;-79
2024/01/24 12:03:46;;;;;;;14.43;7.90;;;;;;;;;;10523195;28;20119;-78
2024/01/24 12:08:47;;;;;;;11.80;6.43;;;;;;;;;;10525772;28;20151;-79
2024/01/24 12:13:49;;;;;;;16.13;7.57;;;;;;;;;;10508796;28;20265;-81
2024/01/24 12:18:50;;;;;;;13.97;6.73;;;;;;;;;;10506778;28;20064;-80
2024/01/24 12:23:51;;;;;;;11.00;6.17;;;;;;;;;;10529211;28;20509;-80
2024/01/24 12:28:58;;;;;;;10.87;6.03;;;;;;;;;;10514114;28;20039;-80
2024/01/24 12:34:09;;;;;;;11.77;7.20;;;;;;;;;;10497699;28;20024;-80
2024/01/24 12:39:11;;;;;;;13.23;7.60;;;;;;;;;;10514503;28;20033;-78
2024/01/24 12:44:12;;;;;;;12.83;6.93;;;;;;;;;;10522263;28;20024;-78
2024/01/24 12:49:13;;;;;;;13.83;7.57;;;;;;;;;;10511560;28;20483;-79
2024/01/24 12:54:14;;;;;;;15.40;7.50;;;;;;;;;;10521557;28;20069;-77
2024/01/24 12:59:15;;;;;;;15.03;7.80;;;;;;;;;;10504184;28;20020;-80
2024/01/24 13:04:16;;;;;;;16.10;7.97;;;;;;;;;;10526479;28;20064;-77
2024/01/24 13:09:17;;;;;;;15.03;8.70;;;;;;;;;;10523468;28;20127;-77
2024/01/24 13:14:18;;;;;;;18.17;10.07;;;;;;;;;;10525316;28;20020;-78
2024/01/24 13:19:19;;;;;;;16.07;9.40;;;;;;;;;;10525338;28;20043;-78
2024/01/24 13:24:21;;;;;;;17.40;10.00;;;;;;;;;;10520932;28;20120;-78
2024/01/24 13:29:22;;;;;;;19.57;10.43;;;;;;;;;;10506722;28;20523;-79
2024/01/24 13:34:23;;;;;;;21.27;11.17;;;;;;;;;;10510938;28;20026;-78
2024/01/24 13:39:25;;;;;;;35.67;20.33;;;;;;;;;;10522042;28;20035;-78
2024/01/24 13:44:26;;;;;;;34.40;17.97;;;;;;;;;;10522168;28;20020;-83
2024/01/24 13:49:27;;;;;;;24.90;13.80;;;;;;;;;;10518366;28;20040;-80
2024/01/24 13:54:28;;;;;;;13.67;6.70;;;;;;;;;;10513605;28;20031;-79
2024/01/24 13:59:29;;;;;;;25.90;12.33;;;;;;;;;;10492243;28;20425;-79
2024/01/24 14:04:30;;;;;;;29.23;13.53;;;;;;;;;;10510892;28;20036;-78
2024/01/24 14:09:31;;;;;;;25.93;14.23;;;;;;;;;;10519838;28;20136;-80
2024/01/24 14:14:32;;;;;;;30.43;11.27;;;;;;;;;;10510497;28;20032;-81
2024/01/24 14:19:33;;;;;;;26.67;10.07;;;;;;;;;;10522810;28;20135;-80
2024/01/24 14:24:34;;;;;;;18.27;8.80;;;;;;;;;;10502165;28;20025;-78
2024/01/24 14:29:36;;;;;;;27.97;11.13;;;;;;;;;;10514553;28;20051;-76
2024/01/24 14:34:37;;;;;;;23.87;9.40;;;;;;;;;;10522165;28;20123;-78
2024/01/24 14:39:39;;;;;;;26.07;9.57;;;;;;;;;;10523626;28;20031;-78
2024/01/24 14:44:40;;;;;;;21.57;9.33;;;;;;;;;;10519817;28;20035;-78
2024/01/24 14:49:41;;;;;;;30.63;12.37;;;;;;;;;;10519096;28;20528;-79
2024/01/24 14:54:42;;;;;;;37.03;14.20;;;;;;;;;;10524715;28;20130;-79
2024/01/24 14:59:43;;;;;;;43.30;17.00;;;;;;;;;;10521968;28;20027;-79
2024/01/24 15:04:51;;;;;;;54.57;20.77;;;;;;;;;;10518610;28;20028;-80
2024/01/24 15:09:52;;;;;;;62.40;25.43;;;;;;;;;;10529185;28;20059;-78
2024/01/24 15:14:53;;;;;;;43.53;15.07;;;;;;;;;;10529345;28;20111;-78
2024/01/24 15:19:54;;;;;;;68.43;29.37;;;;;;;;;;10512629;28;20050;-78
2024/01/24 15:24:55;;;;;;;58.80;25.73;;;;;;;;;;10531609;28;20081;-78
2024/01/24 15:29:58;;;;;;;67.23;26.77;;;;;;;;;;10510903;28;20059;-78
2024/01/24 15:34:59;;;;;;;41.70;17.63;;;;;;;;;;10503904;28;20035;-81
2024/01/24 15:40:02;;;;;;;36.20;14.23;;;;;;;;;;10519531;28;20106;-78
2024/01/24 15:45:10;;;;;;;52.47;24.03;;;;;;;;;;10515687;28;20035;-78
2024/01/24 15:50:11;;;;;;;60.70;26.27;;;;;;;;;;10501756;28;20076;-79
2024/01/24 15:55:12;;;;;;;49.37;21.03;;;;;;;;;;10507654;28;20020;-80
2024/01/24 16:00:14;;;;;;;59.93;26.90;;;;;;;;;;10514245;28;20036;-78
2024/01/24 16:05:33;;;;;;;50.33;21.43;;;;;;;;;;10505924;28;20039;-78
2024/01/24 16:10:34;;;;;;;58.63;24.33;;;;;;;;;;10525652;28;20492;-78
2024/01/24 16:15:35;;;;;;;45.33;18.37;;;;;;;;;;10523351;28;20036;-78
2024/01/24 16:20:36;;;;;;;51.33;21.23;;;;;;;;;;10527579;28;20451;-78
2024/01/24 16:25:37;;;;;;;40.10;14.30;;;;;;;;;;10523167;28;20028;-79
2024/01/24 16:30:41;;;;;;;33.47;13.13;;;;;;;;;;10519903;28;20580;-77
2024/01/24 16:35:43;;;;;;;60.83;25.27;;;;;;;;;;10523554;28;20721;-78
2024/01/24 16:40:44;;;;;;;72.63;28.83;;;;;;;;;;10519679;28;20024;-78
2024/01/24 16:45:45;;;;;;;77.10;30.20;;;;;;;;;;10513288;28;20028;-79
2024/01/24 16:50:46;;;;;;;177.70;86.33;;;;;;;;;;10523326;28;20151;-78
2024/01/24 16:55:47;;;;;;;78.70;38.57;;;;;;;;;;10515139;28;20487;-78
2024/01/24 17:00:48;;;;;;;32.23;15.30;;;;;;;;;;10507801;28;20039;-79
2024/01/24 17:05:49;;;;;;;70.47;31.03;;;;;;;;;;10508617;28;20032;-80
2024/01/24 17:10:51;;;;;;;41.37;16.73;;;;;;;;;;10514943;28;20067;-79
2024/01/24 17:15:52;;;;;;;45.37;22.80;;;;;;;;;;10525251;28;20043;-78
2024/01/24 17:20:53;;;;;;;57.47;25.33;;;;;;;;;;10499692;28;20085;-79
2024/01/24 17:25:54;;;;;;;38.43;19.53;;;;;;;;;;10512611;28;20063;-80
2024/01/24 17:30:55;;;;;;;25.67;10.70;;;;;;;;;;10523024;28;20059;-79
2024/01/24 17:35:56;;;;;;;29.83;12.73;;;;;;;;;;10510391;28;20023;-78
2024/01/24 17:41:00;;;;;;;28.30;12.40;;;;;;;;;;10508966;28;20039;-83
2024/01/24 17:46:01;;;;;;;40.40;18.07;;;;;;;;;;10501494;28;20055;-79
2024/01/24 17:51:02;;;;;;;36.83;16.97;;;;;;;;;;10521423;28;20457;-79
2024/01/24 17:56:03;;;;;;;38.33;16.17;;;;;;;;;;10485484;28;20032;-79
2024/01/24 18:01:04;;;;;;;58.83;27.87;;;;;;;;;;10521019;28;20023;-78
2024/01/24 18:06:06;;;;;;;40.00;17.97;;;;;;;;;;10509279;28;20115;-78
2024/01/24 18:11:06;;;;;;;50.27;20.90;;;;;;;;;;10518518;28;20047;-82
2024/01/24 18:16:08;;;;;;;52.37;20.33;;;;;;;;;;10522526;28;20475;-79
2024/01/24 18:21:09;;;;;;;34.27;12.50;;;;;;;;;;10504747;28;20107;-78
2024/01/24 18:26:16;;;;;;;47.33;20.13;;;;;;;;;;10522362;28;20032;-78
2024/01/24 18:31:17;;;;;;;42.10;17.23;;;;;;;;;;10518885;28;20051;-82
2024/01/24 18:36:18;;;;;;;37.60;16.53;;;;;;;;;;10524140;28;20024;-78
2024/01/24 18:41:21;;;;;;;40.67;16.87;;;;;;;;;;10531023;28;20620;-80
2024/01/24 18:46:25;;;;;;;58.33;22.33;;;;;;;;;;10525507;28;20043;-79
2024/01/24 18:51:26;;;;;;;36.77;14.23;;;;;;;;;;10527248;28;20040;-83
2024/01/24 18:56:27;;;;;;;26.70;10.93;;;;;;;;;;10531646;28;20048;-79
2024/01/24 19:01:28;;;;;;;26.17;10.23;;;;;;;;;;10515967;28;20115;-82
2024/01/24 19:06:29;;;;;;;23.17;9.30;;;;;;;;;;10520310;28;20031;-78
2024/01/24 19:11:30;;;;;;;26.47;9.63;;;;;;;;;;10521346;28;20060;-81
2024/01/24 19:16:31;;;;;;;29.33;11.33;;;;;;;;;;10530550;28;20040;-78
2024/01/24 19:21:32;;;;;;;33.77;10.97;;;;;;;;;;10526645;28;20070;-79
2024/01/24 19:26:35;;;;;;;27.23;11.63;;;;;;;;;;10521135;28;20074;-78
2024/01/24 19:31:36;;;;;;;33.60;13.70;;;;;;;;;;10521286;28;20853;-78
2024/01/24 19:36:37;;;;;;;22.73;10.30;;;;;;;;;;10519297;28;20039;-79
2024/01/24 19:41:38;;;;;;;24.23;10.30;;;;;;;;;;10512748;28;20035;-79
2024/01/24 19:46:42;;;;;;;35.33;13.77;;;;;;;;;;10518035;28;20040;-78
2024/01/24 19:51:43;;;;;;;32.77;12.60;;;;;;;;;;10524671;28;20055;-78
2024/01/24 19:56:44;;;;;;;25.83;9.47;;;;;;;;;;10510694;28;20035;-80
2024/01/24 20:01:45;;;;;;;26.67;6.97;;;;;;;;;;10514716;28;20103;-79
2024/01/24 20:06:46;;;;;;;25.07;8.90;;;;;;;;;;10527804;28;20028;-78
2024/01/24 20:11:47;;;;;;;23.60;8.67;;;;;;;;;;10525386;28;20491;-79
2024/01/24 20:16:48;;;;;;;19.60;7.33;;;;;;;;;;10522049;28;20078;-78
2024/01/24 20:21:50;;;;;;;20.93;7.30;;;;;;;;;;10511797;28;20075;-78
2024/01/24 20:26:57;;;;;;;24.13;7.57;;;;;;;;;;10524200;28;20064;-78
2024/01/24 20:32:01;;;;;;;20.40;7.57;;;;;;;;;;10512870;28;20036;-78
2024/01/24 20:37:02;;;;;;;22.97;7.53;;;;;;;;;;10528112;28;20030;-82
2024/01/24 20:42:03;;;;;;;20.60;7.53;;;;;;;;;;10527373;28;20047;-77
2024/01/24 20:47:04;;;;;;;19.33;5.27;;;;;;;;;;10528270;28;20077;-79
2024/01/24 20:52:05;;;;;;;21.90;6.70;;;;;;;;;;10527242;28;20484;-78
2024/01/24 20:57:07;;;;;;;23.60;7.67;;;;;;;;;;10527593;28;20046;-78
2024/01/24 21:02:08;;;;;;;25.33;8.17;;;;;;;;;;10520157;28;20039;-78
2024/01/24 21:07:16;;;;;;;30.00;9.73;;;;;;;;;;10526615;28;20107;-78
2024/01/24 21:12:17;;;;;;;27.87;10.20;;;;;;;;;;10525759;28;20055;-78
2024/01/24 21:17:18;;;;;;;49.50;15.37;;;;;;;;;;10518218;28;20043;-79
2024/01/24 21:22:19;;;;;;;43.40;13.37;;;;;;;;;;10513405;28;20028;-79
2024/01/24 21:27:20;;;;;;;33.20;10.23;;;;;;;;;;10519574;28;20039;-78
2024/01/24 21:32:21;;;;;;;30.83;10.77;;;;;;;;;;10520902;28;20679;-78
2024/01/24 21:37:22;;;;;;;17.90;5.63;;;;;;;;;;10517216;28;20019;-78
2024/01/24 21:42:23;;;;;;;17.90;6.33;;;;;;;;;;10522730;28;20035;-78
2024/01/24 21:47:24;;;;;;;19.70;6.90;;;;;;;;;;10508417;28;20020;-79
2024/01/24 21:52:25;;;;;;;30.43;10.70;;;;;;;;;;10497364;28;20035;-81
2024/01/24 21:57:26;;;;;;;40.27;13.87;;;;;;;;;;10492260;28;20039;-82
2024/01/24 22:02:27;;;;;;;26.43;10.70;;;;;;;;;;10523518;28;20042;-78
2024/01/24 22:07:28;;;;;;;35.27;11.47;;;;;;;;;;10512651;28;20039;-84
2024/01/24 22:12:29;;;;;;;30.90;9.27;;;;;;;;;;10522623;28;20056;-78
2024/01/24 22:17:30;;;;;;;22.37;7.30;;;;;;;;;;10522812;28;20062;-81
2024/01/24 22:22:31;;;;;;;33.00;9.77;;;;;;;;;;10512687;28;20035;-78
2024/01/24 22:27:32;;;;;;;23.67;6.20;;;;;;;;;;10514421;28;20663;-81
2024/01/24 22:32:33;;;;;;;16.07;5.73;;;;;;;;;;10515794;28;20118;-78
2024/01/24 22:37:34;;;;;;;9.67;4.07;;;;;;;;;;10517887;28;20040;-81
2024/01/24 22:42:35;;;;;;;17.57;4.43;;;;;;;;;;10523901;28;20072;-78
2024/01/24 22:47:36;;;;;;;22.40;7.20;;;;;;;;;;10513197;28;20680;-78
2024/01/24 22:52:37;;;;;;;12.97;5.50;;;;;;;;;;10495462;28;20037;-80
2024/01/24 22:57:38;;;;;;;13.57;4.63;;;;;;;;;;10521711;28;20040;-78
2024/01/24 23:02:39;;;;;;;13.83;4.43;;;;;;;;;;10522211;28;20113;-80
2024/01/24 23:07:41;;;;;;;12.53;3.33;;;;;;;;;;10523297;28;20068;-78
2024/01/24 23:12:42;;;;;;;14.63;3.60;;;;;;;;;;10521303;28;20453;-77
2024/01/24 23:17:43;;;;;;;13.30;3.50;;;;;;;;;;10503539;28;20165;-78
2024/01/24 23:22:58;;;;;;;14.77;4.73;;;;;;;;;;10523735;28;20491;-79
2024/01/24 23:27:59;;;;;;;11.93;4.50;;;;;;;;;;10522272;28;20415;-79
2024/01/24 23:33:00;;;;;;;13.27;4.27;;;;;;;;;;10529845;28;20032;-79
2024/01/24 23:38:01;;;;;;;15.03;3.73;;;;;;;;;;10517340;28;20746;-78
2024/01/24 23:43:02;;;;;;;15.47;4.07;;;;;;;;;;10529471;28;20430;-78
2024/01/24 23:48:03;;;;;;;17.77;5.00;;;;;;;;;;10526985;28;20039;-77
2024/01/24 23:53:04;;;;;;;11.87;4.10;;;;;;;;;;10530053;28;20048;-78
2024/01/24 23:58:05;;;;;;;11.83;3.27;;;;;;;;;;10516769;28;20020;-81
